createdAt,value
2018-04-10T00:01:27.203Z,78.20
2018-04-10T00:03:55.252Z,78.10
2018-04-10T00:06:23.314Z,78.20
2018-04-10T00:08:51.374Z,78.40
2018-04-10T00:11:19.420Z,78.80
2018-04-10T00:13:47.505Z,78.80
2018-04-10T00:16:15.573Z,78.80
2018-04-10T00:18:43.639Z,78.40
2018-04-10T00:21:11.685Z,78.30
2018-04-10T00:23:40.507Z,78.00
2018-04-10T00:26:08.548Z,78.00
2018-04-10T00:28:36.614Z,78.30
2018-04-10T00:31:05.446Z,79.50
2018-04-10T00:33:33.494Z,79.50
2018-04-10T00:36:01.560Z,80.00
2018-04-10T00:38:29.608Z,80.30
2018-04-10T00:40:58.435Z,81.20
2018-04-10T00:43:26.472Z,81.20
2018-04-10T00:45:55.322Z,81.30
2018-04-10T00:48:23.369Z,81.20
2018-04-10T00:50:51.435Z,80.80
2018-04-10T00:53:31.259Z,80.90
2018-04-10T00:56:00.228Z,80.80
2018-04-10T00:58:28.290Z,80.80
2018-04-10T01:00:56.350Z,80.80
2018-04-10T01:03:24.412Z,81.10
2018-04-10T01:05:52.472Z,81.20
2018-04-10T01:08:20.524Z,81.40
2018-04-10T01:10:48.593Z,81.60
2018-04-10T01:13:16.641Z,81.40
2018-04-10T01:15:44.702Z,81.60
2018-04-10T01:18:12.744Z,81.70
2018-04-10T01:20:40.822Z,81.90
2018-04-10T01:23:08.878Z,82.10
2018-04-10T01:25:36.929Z,81.90
2018-04-10T01:28:05.213Z,81.60
2018-04-10T01:30:33.278Z,81.30
2018-04-10T01:33:01.337Z,81.60
2018-04-10T01:35:29.396Z,81.50
2018-04-10T01:37:57.446Z,81.20
2018-04-10T01:40:26.276Z,81.40
2018-04-10T01:42:54.321Z,81.40
2018-04-10T01:45:22.398Z,82.00
2018-04-10T01:47:50.453Z,82.10
2018-04-10T01:50:19.278Z,81.90
2018-04-10T01:52:47.328Z,81.90
2018-04-10T01:55:15.600Z,82.10
2018-04-10T01:57:43.666Z,82.30
2018-04-10T02:00:11.725Z,82.20
2018-04-10T02:02:40.558Z,83.40
2018-04-10T02:05:08.601Z,83.40
2018-04-10T02:07:36.662Z,83.20
2018-04-10T02:10:05.489Z,83.00
2018-04-10T02:12:33.619Z,83.00
2018-04-10T02:15:02.473Z,83.00
2018-04-10T02:17:30.533Z,83.00
2018-04-10T02:19:58.718Z,82.50
2018-04-10T02:22:26.771Z,82.20
2018-04-10T02:24:54.861Z,82.30
2018-04-10T02:27:22.907Z,82.10
2018-04-10T02:29:50.965Z,82.00
2018-04-10T02:32:19.036Z,81.80
2018-04-10T02:34:50.078Z,82.10
2018-04-10T02:37:18.147Z,82.70
2018-04-10T02:39:46.214Z,82.70
2018-04-10T02:42:14.267Z,83.70
2018-04-10T02:44:43.554Z,84.60
2018-04-10T02:47:12.377Z,84.60
2018-04-10T02:49:40.431Z,84.50
2018-04-10T02:52:09.246Z,84.30
2018-04-10T02:54:37.324Z,84.30
2018-04-10T02:57:05.364Z,83.80
2018-04-10T02:59:33.429Z,83.30
2018-04-10T03:02:02.250Z,83.10
2018-04-10T03:04:30.305Z,83.10
2018-04-10T03:06:58.585Z,84.10
2018-04-10T03:09:26.631Z,84.50
2018-04-10T03:11:55.445Z,85.10
2018-04-10T03:14:23.526Z,85.10
2018-04-10T03:16:51.607Z,85.30
2018-04-10T03:19:20.647Z,85.00
2018-04-10T03:21:49.475Z,84.50
2018-04-10T03:24:18.850Z,84.10
2018-04-10T03:26:47.669Z,84.60
2018-04-10T03:29:15.739Z,84.60
2018-04-10T03:31:43.803Z,84.90
2018-04-10T03:34:11.851Z,85.50
2018-04-10T03:36:40.688Z,86.00
2018-04-10T03:39:08.734Z,85.90
2018-04-10T03:41:36.929Z,86.20
2018-04-10T03:44:04.960Z,86.20
2018-04-10T03:46:33.029Z,86.30
2018-04-10T03:49:01.863Z,87.00
2018-04-10T03:51:29.914Z,87.00
2018-04-10T03:53:57.967Z,86.90
2018-04-10T03:56:26.109Z,87.00
2018-04-10T03:58:54.348Z,86.80
2018-04-10T04:01:22.414Z,86.30
2018-04-10T04:03:50.925Z,85.70
2018-04-10T04:06:19.012Z,85.70
2018-04-10T04:08:51.066Z,85.90
2018-04-10T04:11:19.124Z,85.90
2018-04-10T04:13:47.178Z,86.10
2018-04-10T04:16:27.054Z,86.10
2018-04-10T04:19:19.873Z,85.80
2018-04-10T04:21:59.683Z,85.90
2018-04-10T04:24:27.734Z,86.00
2018-04-10T04:26:56.555Z,86.10
2018-04-10T04:29:24.585Z,85.70
2018-04-10T04:31:52.638Z,86.10
2018-04-10T04:34:20.677Z,86.10
2018-04-10T04:36:48.735Z,86.00
2018-04-10T04:39:16.781Z,85.90
2018-04-10T04:41:45.610Z,85.80
2018-04-10T04:44:13.656Z,85.80
2018-04-10T04:46:41.720Z,85.60
2018-04-10T04:49:10.542Z,85.70
2018-04-10T04:51:38.611Z,85.60
2018-04-10T04:54:06.674Z,86.00
2018-04-10T04:56:34.791Z,86.20
2018-04-10T04:59:03.131Z,86.20
2018-04-10T05:01:32.935Z,86.10
2018-04-10T05:04:01.003Z,86.00
2018-04-10T05:06:29.064Z,86.20
2018-04-10T05:08:58.914Z,86.10
2018-04-10T05:11:26.976Z,85.70
2018-04-10T05:13:56.458Z,85.30
2018-04-10T05:16:24.538Z,85.10
2018-04-10T05:18:52.625Z,85.00
2018-04-10T05:21:20.702Z,84.70
2018-04-10T05:23:48.774Z,85.30
2018-04-10T05:26:16.833Z,85.50
2018-04-10T05:28:44.918Z,86.20
2018-04-10T05:31:13.058Z,86.50
2018-04-10T05:36:36.984Z,86.40
2018-04-10T05:39:05.995Z,85.90
2018-04-10T05:41:34.064Z,85.90
2018-04-10T05:44:02.143Z,85.40
2018-04-10T05:46:30.223Z,85.60
2018-04-10T05:48:58.288Z,85.60
2018-04-10T05:51:26.352Z,85.60
2018-04-10T05:53:54.546Z,85.60
2018-04-10T05:56:22.601Z,85.60
2018-04-10T05:58:50.669Z,85.80
2018-04-10T06:01:18.836Z,85.40
2018-04-10T06:03:46.910Z,84.70
2018-04-10T06:06:14.977Z,84.10
2018-04-10T06:08:43.056Z,84.10
2018-04-10T06:11:11.120Z,83.90
2018-04-10T06:13:39.193Z,83.70
2018-04-10T06:16:07.263Z,84.00
2018-04-10T06:18:35.339Z,84.50
2018-04-10T06:21:03.429Z,84.50
2018-04-10T06:23:31.487Z,84.50
2018-04-10T06:25:59.537Z,84.20
2018-04-10T06:28:27.619Z,83.30
2018-04-10T06:30:55.686Z,82.50
2018-04-10T06:33:23.745Z,82.00
2018-04-10T06:35:51.799Z,81.90
2018-04-10T06:38:19.852Z,81.70
2018-04-10T06:40:47.905Z,81.80
2018-04-10T06:43:16.730Z,82.00
2018-04-10T06:45:44.793Z,81.90
2018-04-10T06:48:12.995Z,81.50
2018-04-10T06:50:41.030Z,81.50
2018-04-10T06:53:09.106Z,81.50
2018-04-10T06:55:37.198Z,81.40
2018-04-10T06:58:05.243Z,81.10
2018-04-10T07:00:33.316Z,80.90
2018-04-10T07:03:01.372Z,80.80
2018-04-10T07:05:29.412Z,79.80
2018-04-10T07:07:57.527Z,79.80
2018-04-10T07:10:25.538Z,79.80
2018-04-10T07:12:53.988Z,80.10
2018-04-10T07:15:22.026Z,79.70
2018-04-10T07:17:50.836Z,80.20
2018-04-10T07:20:18.908Z,80.20
2018-04-10T07:22:46.948Z,79.80
2018-04-10T07:25:15.774Z,79.20
2018-04-10T07:27:43.869Z,79.10
2018-04-10T07:30:11.909Z,79.10
2018-04-10T07:32:39.978Z,78.90
2018-04-10T07:35:08.022Z,78.90
2018-04-10T07:37:36.843Z,78.60
2018-04-10T07:40:04.939Z,78.60
2018-04-10T07:42:32.988Z,78.30
2018-04-10T07:45:01.052Z,78.30
2018-04-10T07:47:29.092Z,78.30
2018-04-10T07:49:57.921Z,77.20
2018-04-10T07:52:25.964Z,77.20
2018-04-10T07:54:54.018Z,77.30
2018-04-10T07:57:22.117Z,77.50
2018-04-10T07:59:50.178Z,76.80
2018-04-10T08:02:19.192Z,76.00
2018-04-10T08:04:48.113Z,75.70
2018-04-10T08:07:16.105Z,75.70
2018-04-10T08:09:44.163Z,75.00
2018-04-10T08:12:12.218Z,73.80
2018-04-10T08:14:40.307Z,73.40
2018-04-10T08:17:08.371Z,73.50
2018-04-10T08:19:36.445Z,72.00
2018-04-10T08:22:04.479Z,71.20
2018-04-10T08:24:32.529Z,70.80
2018-04-10T08:27:00.614Z,69.90
2018-04-10T08:29:28.681Z,69.40
2018-04-10T08:31:56.746Z,69.30
2018-04-10T08:34:24.822Z,68.80
2018-04-10T08:36:52.893Z,68.50
2018-04-10T08:39:20.969Z,67.50
2018-04-10T08:41:49.034Z,67.80
2018-04-10T08:44:17.106Z,67.50
2018-04-10T08:46:45.186Z,66.80
2018-04-10T08:49:13.243Z,66.30
2018-04-10T08:51:41.323Z,66.70
2018-04-10T08:54:12.158Z,66.60
2018-04-10T08:56:40.220Z,67.00
2018-04-10T08:59:08.279Z,66.50
2018-04-10T09:01:36.350Z,66.00
2018-04-10T09:04:04.429Z,65.80
2018-04-10T09:06:32.472Z,65.90
2018-04-10T09:09:06.531Z,65.20
2018-04-10T09:11:34.594Z,64.90
2018-04-10T09:14:02.645Z,64.30
2018-04-10T09:16:31.467Z,64.10
2018-04-10T09:18:59.523Z,64.00
2018-04-10T09:21:27.626Z,63.40
2018-04-10T09:23:55.702Z,63.30
2018-04-10T09:26:27.946Z,62.50
2018-04-10T09:28:56.009Z,62.30
2018-04-10T09:31:24.078Z,60.20
2018-04-10T09:33:52.146Z,54.50
2018-04-10T09:36:20.211Z,47.50
2018-04-10T09:38:50.637Z,42.50
2018-04-10T09:41:18.695Z,38.30
2018-04-10T09:43:47.522Z,31.90
2018-04-10T09:46:15.574Z,31.70
2018-04-10T09:48:43.634Z,31.20
2018-04-10T09:51:12.475Z,28.20
2018-04-10T09:53:40.546Z,28.10
2018-04-10T09:56:08.629Z,26.30
2018-04-10T09:58:36.675Z,26.20
2018-04-10T10:01:04.733Z,25.00
2018-04-10T10:03:33.608Z,25.10
2018-04-10T10:06:01.893Z,25.60
2018-04-10T10:08:29.958Z,25.10
2018-04-10T10:10:58.030Z,25.10
2018-04-10T10:13:26.096Z,25.30
2018-04-10T10:15:54.159Z,26.00
2018-04-10T10:18:22.220Z,26.70
2018-04-10T10:20:52.271Z,27.60
2018-04-10T10:23:20.456Z,28.50
2018-04-10T10:25:48.625Z,29.60
2018-04-10T10:28:16.681Z,31.40
2018-04-10T10:30:44.746Z,34.10
2018-04-10T10:33:12.810Z,35.20
2018-04-10T10:35:40.878Z,36.70
2018-04-10T10:38:08.924Z,35.20
2018-04-10T10:40:37.935Z,39.10
2018-04-10T10:43:05.945Z,39.10
2018-04-10T10:45:34.005Z,40.40
2018-04-10T10:48:02.072Z,41.00
2018-04-10T10:50:30.121Z,42.10
2018-04-10T10:52:59.123Z,43.20
2018-04-10T10:55:27.191Z,42.70
2018-04-10T10:57:55.262Z,42.80
2018-04-10T11:00:23.354Z,45.80
2018-04-10T11:02:51.614Z,45.40
2018-04-10T11:05:19.660Z,45.70
2018-04-10T11:07:48.498Z,44.00
2018-04-10T11:10:16.541Z,44.00
2018-04-10T11:12:44.587Z,44.20
2018-04-10T11:15:12.644Z,43.30
2018-04-10T11:17:40.707Z,43.60
2018-04-10T11:20:08.804Z,43.50
2018-04-10T11:22:36.818Z,43.70
2018-04-10T11:25:04.856Z,43.40
2018-04-10T11:33:53.279Z,44.70
2018-04-10T11:36:22.112Z,44.00
2018-04-10T11:38:50.196Z,44.60
2018-04-10T11:41:18.238Z,44.10
2018-04-10T11:43:47.063Z,44.30
2018-04-10T11:46:15.132Z,44.20
2018-04-10T11:48:43.444Z,43.70
2018-04-10T11:51:13.301Z,42.80
2018-04-10T11:53:41.350Z,42.70
2018-04-10T11:56:09.425Z,42.10
2018-04-10T11:58:37.496Z,41.70
2018-04-10T12:01:07.503Z,43.00
2018-04-10T12:03:35.554Z,43.00
2018-04-10T12:06:04.383Z,43.90
2018-04-10T12:08:32.448Z,43.90
2018-04-10T12:11:00.517Z,44.60
2018-04-10T12:13:28.588Z,45.10
2018-04-10T12:15:57.419Z,44.30
2018-04-10T12:18:25.480Z,44.30
2018-04-10T12:20:53.557Z,43.50
2018-04-10T12:23:21.619Z,43.40
2018-04-10T12:25:49.728Z,42.90
2018-04-10T12:28:18.560Z,42.40
2018-04-10T12:30:46.629Z,42.40
2018-04-10T12:33:14.709Z,41.70
2018-04-10T12:35:42.772Z,41.70
2018-04-10T12:38:10.848Z,41.30
2018-04-10T12:40:38.919Z,41.50
2018-04-10T12:43:07.235Z,42.00
2018-04-10T12:45:35.252Z,41.00
2018-04-10T12:48:03.322Z,41.50
2018-04-10T12:50:31.378Z,40.00
2018-04-10T12:52:59.451Z,40.30
2018-04-10T12:55:27.520Z,39.90
2018-04-10T12:57:55.591Z,40.00
2018-04-10T13:00:23.644Z,39.40
2018-04-10T13:02:51.878Z,40.70
2018-04-10T13:05:19.934Z,42.40
2018-04-10T13:07:48.005Z,43.00
2018-04-10T13:10:16.071Z,42.70
2018-04-10T13:12:44.156Z,43.20
2018-04-10T13:15:12.202Z,43.40
2018-04-10T13:17:44.815Z,43.10
2018-04-10T13:20:12.887Z,43.40
2018-04-10T13:22:40.967Z,44.50
2018-04-10T13:25:09.035Z,44.60
2018-04-10T13:27:37.102Z,44.60
2018-04-10T13:30:05.183Z,44.80
2018-04-10T13:32:35.234Z,44.80
2018-04-10T13:35:04.103Z,45.10
2018-04-10T13:37:35.035Z,45.10
2018-04-10T13:40:03.900Z,44.10
2018-04-10T13:42:31.971Z,44.10
2018-04-10T13:45:00.778Z,43.50
2018-04-10T13:47:28.839Z,43.10
2018-04-10T13:49:56.901Z,42.80
2018-04-10T13:52:25.019Z,44.10
2018-04-10T13:54:53.087Z,44.80
2018-04-10T13:57:21.164Z,44.20
2018-04-10T13:59:49.323Z,43.50
2018-04-10T14:02:18.160Z,44.30
2018-04-10T14:04:46.229Z,44.30
2018-04-10T14:07:14.305Z,43.20
2018-04-10T14:09:42.476Z,51.90
2018-04-10T14:12:10.610Z,53.00
2018-04-10T14:14:39.698Z,50.40
2018-04-10T14:17:08.571Z,50.70
2018-04-10T14:19:36.637Z,50.70
2018-04-10T14:22:04.976Z,49.60
2018-04-10T14:24:33.028Z,48.90
2018-04-10T14:27:01.103Z,50.60
2018-04-10T14:29:29.179Z,50.30
2018-04-10T14:31:58.115Z,50.00
2018-04-10T14:34:26.191Z,50.00
2018-04-10T14:36:54.265Z,49.30
2018-04-10T14:39:22.338Z,51.00
2018-04-10T14:41:50.412Z,51.20
2018-04-10T14:44:19.247Z,59.10
2018-04-10T14:46:47.306Z,59.00
2018-04-10T14:49:15.384Z,58.90
2018-04-10T14:51:43.565Z,60.40
2018-04-10T14:54:12.444Z,61.90
2018-04-10T14:56:43.644Z,61.20
2018-04-10T14:59:11.720Z,62.60
2018-04-10T15:01:41.075Z,63.00
2018-04-10T15:04:09.915Z,59.60
2018-04-10T15:06:40.402Z,61.00
2018-04-10T15:09:08.469Z,61.00
2018-04-10T15:11:36.630Z,61.10
2018-04-10T15:14:04.699Z,60.20
2018-04-10T15:16:32.768Z,57.20
2018-04-10T15:19:00.839Z,58.90
2018-04-10T15:21:28.919Z,59.90
2018-04-10T15:23:56.987Z,62.80
2018-04-10T15:26:25.042Z,65.30
2018-04-10T15:28:53.162Z,67.50
2018-04-10T15:31:21.202Z,68.40
2018-04-10T15:33:49.258Z,71.20
2018-04-10T15:36:17.330Z,72.30
2018-04-10T15:38:45.778Z,72.70
2018-04-10T15:41:13.835Z,74.60
2018-04-10T15:43:43.746Z,75.40
2018-04-10T15:46:11.817Z,75.70
2018-04-10T15:48:39.884Z,76.20
2018-04-10T15:51:07.959Z,78.00
2018-04-10T15:53:36.027Z,78.90
2018-04-10T15:56:04.113Z,79.00
2018-04-10T15:58:32.278Z,80.30
2018-04-10T16:01:00.345Z,83.10
2018-04-10T16:03:28.424Z,88.30
2018-04-10T16:05:56.564Z,91.10
2018-04-10T16:08:24.626Z,92.70
2018-04-10T16:10:52.823Z,92.80
2018-04-10T16:13:20.883Z,93.50
2018-04-10T16:15:48.934Z,93.30
2018-04-10T16:18:16.999Z,93.40
2018-04-10T16:20:45.795Z,93.20
2018-04-10T16:23:13.861Z,92.50
2018-04-10T16:25:41.931Z,91.80
2018-04-10T16:28:09.991Z,92.50
2018-04-10T16:30:38.063Z,93.00
2018-04-10T16:33:06.151Z,91.30
2018-04-10T16:35:34.215Z,90.80
2018-04-10T16:38:02.280Z,91.50
2018-04-10T16:40:30.354Z,91.50
2018-04-10T16:42:58.416Z,91.50
2018-04-10T16:45:26.500Z,91.70
2018-04-10T16:47:54.547Z,93.00
2018-04-10T16:50:23.372Z,91.90
2018-04-10T16:52:51.435Z,91.90
2018-04-10T16:55:19.506Z,91.10
2018-04-10T16:57:47.611Z,91.00
2018-04-10T17:00:15.682Z,91.50
2018-04-10T17:02:43.736Z,91.90
2018-04-10T17:05:11.809Z,90.50
2018-04-10T17:07:39.880Z,91.60
2018-04-10T17:10:07.943Z,92.10
2018-04-10T17:12:36.006Z,90.70
2018-04-10T17:15:04.077Z,91.20
2018-04-10T17:17:32.135Z,91.00
2018-04-10T17:20:00.214Z,90.80
2018-04-10T17:22:28.278Z,90.10
2018-04-10T17:24:56.332Z,89.50
2018-04-10T17:27:24.402Z,90.60
2018-04-10T17:29:53.231Z,91.00
2018-04-10T17:32:21.655Z,91.00
2018-04-10T17:34:50.483Z,91.00
2018-04-10T17:37:18.552Z,91.00
2018-04-10T17:39:46.641Z,90.90
2018-04-10T17:42:14.662Z,91.60
2018-04-10T17:44:42.714Z,91.90
2018-04-10T17:47:10.770Z,91.40
2018-04-10T17:49:39.294Z,92.00
2018-04-10T17:52:07.424Z,93.00
2018-04-10T17:54:35.524Z,92.20
2018-04-10T17:57:03.538Z,91.30
2018-04-10T17:59:32.391Z,91.40
2018-04-10T18:02:00.446Z,91.40
2018-04-10T18:04:28.513Z,92.30
2018-04-10T18:06:56.557Z,92.50
2018-04-10T18:09:24.639Z,92.60
2018-04-10T18:11:52.712Z,92.10
2018-04-10T18:14:20.752Z,91.90
2018-04-10T18:16:55.822Z,92.20
2018-04-10T18:19:23.950Z,91.60
2018-04-10T18:21:52.088Z,91.00
2018-04-10T18:24:20.192Z,90.50
2018-04-10T18:26:48.619Z,90.60
2018-04-10T18:29:16.688Z,91.10
2018-04-10T18:31:44.838Z,90.60
2018-04-10T18:34:13.680Z,90.80
2018-04-10T18:36:42.520Z,89.80
2018-04-10T18:39:10.824Z,89.80
2018-04-10T18:41:38.933Z,89.90
2018-04-10T18:44:07.745Z,88.90
2018-04-10T18:46:36.850Z,88.80
2018-04-10T18:49:04.912Z,89.10
2018-04-10T18:51:32.992Z,89.60
2018-04-10T18:54:01.269Z,90.30
2018-04-10T18:56:32.375Z,89.10
2018-04-10T18:59:00.508Z,90.00
2018-04-10T19:01:31.447Z,88.20
2018-04-10T19:03:59.513Z,88.20
2018-04-10T19:06:27.778Z,90.00
2018-04-10T19:08:55.831Z,88.60
2018-04-10T19:11:23.899Z,88.10
2018-04-10T19:13:51.950Z,88.30
2018-04-10T19:16:20.016Z,86.90
2018-04-10T19:18:48.067Z,87.60
2018-04-10T19:21:17.754Z,87.30
2018-04-10T19:23:45.835Z,87.30
2018-04-10T19:26:14.092Z,88.00
2018-04-10T19:28:42.304Z,88.20
2018-04-10T19:31:11.149Z,89.80
2018-04-10T19:33:39.201Z,89.80
2018-04-10T19:36:07.276Z,87.30
2018-04-10T19:38:35.327Z,87.60
2018-04-10T19:41:04.349Z,88.20
2018-04-10T19:43:32.492Z,86.50
2018-04-10T19:46:00.570Z,87.50
2018-04-10T19:48:28.620Z,86.00
2018-04-10T19:50:57.487Z,85.60
2018-04-10T19:53:25.542Z,85.60
2018-04-10T19:55:53.612Z,84.60
2018-04-10T19:58:21.679Z,85.10
2018-04-10T20:00:49.754Z,85.20
2018-04-10T20:03:17.815Z,84.80
2018-04-10T20:05:46.158Z,84.40
2018-04-10T20:08:14.259Z,84.20
2018-04-10T20:10:42.355Z,84.90
2018-04-10T20:13:10.404Z,83.30
2018-04-10T20:15:38.554Z,83.60
2018-04-10T20:18:07.355Z,83.10
2018-04-10T20:20:35.403Z,83.10
2018-04-10T20:23:03.474Z,82.40
2018-04-10T20:25:33.540Z,82.40
2018-04-10T20:28:01.608Z,83.70
2018-04-10T20:30:29.684Z,82.20
2018-04-10T20:32:57.861Z,82.20
2018-04-10T20:35:26.000Z,83.80
2018-04-10T20:37:54.068Z,84.40
2018-04-10T20:40:22.125Z,85.40
2018-04-10T20:42:50.194Z,83.60
2018-04-10T20:45:18.311Z,83.30
2018-04-10T20:47:46.383Z,84.00
2018-04-10T20:50:14.455Z,84.20
2018-04-10T20:52:42.536Z,84.00
2018-04-10T20:55:10.604Z,84.30
2018-04-10T20:57:38.683Z,83.30
2018-04-10T21:00:06.757Z,83.00
2018-04-10T21:02:34.835Z,85.50
2018-04-10T21:05:05.585Z,85.90
2018-04-10T21:07:34.439Z,86.00
2018-04-10T21:10:02.563Z,86.00
2018-04-10T21:12:30.683Z,85.70
2018-04-10T21:14:58.735Z,84.20
2018-04-10T21:17:26.874Z,84.40
2018-04-10T21:19:55.083Z,85.30
2018-04-10T21:22:23.120Z,85.70
2018-04-10T21:24:51.174Z,86.10
2018-04-10T21:27:20.012Z,85.70
2018-04-10T21:29:48.119Z,85.80
2018-04-10T21:32:18.603Z,86.70
2018-04-10T21:34:47.205Z,84.40
2018-04-10T21:37:15.280Z,85.50
2018-04-10T21:39:43.342Z,87.10
2018-04-10T21:42:11.418Z,87.80
2018-04-10T21:44:39.524Z,88.40
2018-04-10T21:47:07.608Z,87.80
2018-04-10T21:49:35.743Z,86.00
2018-04-10T21:52:03.830Z,85.60
2018-04-10T21:54:31.894Z,86.40
2018-04-10T21:56:59.975Z,85.50
2018-04-10T21:59:28.035Z,86.40
2018-04-10T22:01:56.131Z,87.20
2018-04-10T22:04:25.024Z,88.20
2018-04-10T22:06:53.157Z,88.90
2018-04-10T22:09:21.276Z,86.60
2018-04-10T22:11:49.401Z,87.30
2018-04-10T22:14:18.441Z,86.00
2018-04-10T22:16:46.519Z,87.20
2018-04-10T22:19:14.592Z,89.70
2018-04-10T22:21:42.655Z,90.30
2018-04-10T22:24:10.762Z,90.40
2018-04-10T22:26:39.806Z,90.70
2018-04-10T22:29:08.662Z,90.20
2018-04-10T22:31:36.746Z,90.20
2018-04-10T22:34:04.775Z,90.30
2018-04-10T22:36:32.823Z,90.70
2018-04-10T22:39:01.008Z,91.10
2018-04-10T22:41:29.066Z,90.90
2018-04-10T22:43:57.140Z,91.00
2018-04-10T22:46:27.112Z,91.00
2018-04-10T22:48:55.938Z,89.80
2018-04-10T22:51:23.997Z,89.70
2018-04-10T22:53:52.060Z,90.10
2018-04-10T22:56:20.125Z,90.70
2018-04-10T22:58:48.193Z,91.00
2018-04-10T23:01:16.272Z,91.20
2018-04-10T23:03:44.406Z,91.30
2018-04-10T23:06:13.087Z,91.30
2018-04-10T23:08:41.164Z,91.00
2018-04-10T23:11:09.383Z,90.60
2018-04-10T23:13:37.635Z,91.10
2018-04-10T23:16:05.700Z,91.00
2018-04-10T23:18:33.804Z,90.90
2018-04-10T23:21:02.759Z,91.40
2018-04-10T23:23:30.830Z,91.40
2018-04-10T23:26:00.071Z,91.40
2018-04-10T23:28:28.180Z,91.00
2018-04-10T23:30:56.280Z,91.30
2018-04-10T23:33:24.461Z,91.10
2018-04-10T23:35:54.358Z,91.30
2018-04-10T23:38:22.419Z,91.20
2018-04-10T23:40:50.576Z,91.00
2018-04-10T23:43:18.662Z,91.10
2018-04-10T23:45:46.759Z,91.20
2018-04-10T23:48:14.907Z,91.00
2018-04-10T23:50:42.968Z,90.90
2018-04-10T23:53:11.086Z,91.20
2018-04-10T23:55:39.110Z,91.30
2018-04-10T23:58:07.177Z,91.30
